Time;durP1;ratioP1;P1;durP2;ratioP2;P2;SDS_P1;SDS_P2;PMS_P1;PMS_P2;Temp;Humidity;BMP_temperature;BMP_pressure;BME280_temperature;BME280_humidity;BME280_pressure;Samples;Min_cycle;Max_cycle;Signal;HPM_P1;HPM_P2
2022/08/14 00:00:52;;;;;;;4.93;2.30;;;;;;;;;;4966730;28;20183;-82
2022/08/14 00:03:56;;;;;;;4.33;2.50;;;;;;;;;;4966318;28;20630;-82
2022/08/14 00:07:01;;;;;;;3.47;2.53;;;;;;;;;;4954768;28;20215;-83
2022/08/14 00:10:09;;;;;;;3.07;2.70;;;;;;;;;;4965799;28;20179;-83
2022/08/14 00:13:15;;;;;;;2.30;2.10;;;;;;;;;;4955661;28;20531;-82
2022/08/14 00:16:20;;;;;;;2.80;2.20;;;;;;;;;;4976746;28;20226;-83
2022/08/14 00:19:24;;;;;;;2.87;2.40;;;;;;;;;;4986094;28;20201;-83
2022/08/14 00:22:28;;;;;;;3.10;2.47;;;;;;;;;;5008856;28;20182;-82
2022/08/14 00:25:32;;;;;;;3.17;2.80;;;;;;;;;;5008558;28;20217;-83
2022/08/14 00:28:37;;;;;;;3.83;2.37;;;;;;;;;;5008549;28;20197;-82
2022/08/14 00:31:41;;;;;;;2.80;2.60;;;;;;;;;;5008684;28;20205;-82
2022/08/14 00:34:45;;;;;;;5.77;2.60;;;;;;;;;;4998404;28;20201;-83
2022/08/14 00:37:49;;;;;;;5.20;2.47;;;;;;;;;;4989092;28;20230;-83
2022/08/14 00:40:53;;;;;;;13.23;3.17;;;;;;;;;;4999275;28;20210;-83
2022/08/14 00:43:58;;;;;;;2.80;2.40;;;;;;;;;;4988838;28;20179;-82
2022/08/14 00:47:07;;;;;;;3.20;2.83;;;;;;;;;;4988549;28;20704;-83
2022/08/14 00:50:17;;;;;;;2.87;2.67;;;;;;;;;;5018874;28;20193;-83
2022/08/14 00:53:22;;;;;;;3.77;2.63;;;;;;;;;;4968960;28;20205;-82
2022/08/14 00:56:27;;;;;;;3.73;2.70;;;;;;;;;;4981104;28;20215;-83
2022/08/14 00:59:32;;;;;;;2.40;2.20;;;;;;;;;;4969200;28;20195;-83
2022/08/14 01:02:36;;;;;;;3.50;2.63;;;;;;;;;;4981339;28;20201;-83
2022/08/14 01:05:44;;;;;;;2.83;2.53;;;;;;;;;;4999313;28;20226;-82
2022/08/14 01:08:49;;;;;;;3.50;2.60;;;;;;;;;;4999495;28;20175;-82
2022/08/14 01:11:53;;;;;;;2.97;2.67;;;;;;;;;;4988174;28;20201;-83
2022/08/14 01:14:59;;;;;;;7.13;2.67;;;;;;;;;;4988381;28;20554;-83
2022/08/14 01:21:38;;;;;;;2.70;2.50;;;;;;;;;;5000158;28;20186;-83
2022/08/14 01:24:43;;;;;;;3.27;2.97;;;;;;;;;;5002492;28;20197;-83
2022/08/14 01:27:48;;;;;;;4.07;3.00;;;;;;;;;;4996964;28;20185;-83
2022/08/14 01:30:56;;;;;;;3.17;2.87;;;;;;;;;;5006873;28;20181;-83
2022/08/14 01:34:03;;;;;;;3.63;2.70;;;;;;;;;;4984087;28;20202;-82
2022/08/14 01:37:07;;;;;;;3.50;2.67;;;;;;;;;;4989095;28;20178;-83
2022/08/14 01:40:11;;;;;;;3.80;2.83;;;;;;;;;;4996599;28;20522;-82
2022/08/14 01:43:16;;;;;;;4.77;2.70;;;;;;;;;;5004436;28;20625;-83
2022/08/14 01:46:23;;;;;;;2.80;2.60;;;;;;;;;;4998893;28;20218;-82
2022/08/14 01:49:30;;;;;;;4.70;2.80;;;;;;;;;;4987253;28;20194;-83
2022/08/14 01:52:36;;;;;;;3.40;3.10;;;;;;;;;;4987551;28;20538;-83
2022/08/14 01:55:40;;;;;;;3.47;2.83;;;;;;;;;;4987372;28;20213;-83
2022/08/14 01:58:49;;;;;;;2.93;2.43;;;;;;;;;;4987818;28;20707;-83
2022/08/14 02:01:55;;;;;;;3.30;3.00;;;;;;;;;;4995913;28;20178;-82
2022/08/14 02:05:00;;;;;;;4.30;2.73;;;;;;;;;;5007153;28;20186;-83
2022/08/14 02:08:06;;;;;;;4.10;3.30;;;;;;;;;;5007373;28;20177;-82
2022/08/14 02:11:23;;;;;;;3.53;2.87;;;;;;;;;;5007860;28;20498;-83
2022/08/14 02:14:28;;;;;;;4.07;3.40;;;;;;;;;;5006829;28;20193;-83
2022/08/14 02:17:32;;;;;;;6.50;3.23;;;;;;;;;;4992550;28;20625;-86
2022/08/14 02:20:36;;;;;;;3.50;3.20;;;;;;;;;;4988482;28;20645;-86
2022/08/14 02:23:41;;;;;;;2.83;2.63;;;;;;;;;;4995275;28;20182;-85
2022/08/14 02:26:48;;;;;;;3.13;2.87;;;;;;;;;;5002869;28;20217;-86
2022/08/14 02:29:55;;;;;;;3.20;2.80;;;;;;;;;;4964338;28;20183;-86
2022/08/14 02:33:00;;;;;;;3.63;3.10;;;;;;;;;;4964142;28;20179;-86
2022/08/14 02:36:04;;;;;;;3.37;3.07;;;;;;;;;;4974702;28;20218;-87
2022/08/14 02:39:09;;;;;;;3.30;3.00;;;;;;;;;;4983037;28;20218;-87
2022/08/14 02:42:17;;;;;;;2.90;2.70;;;;;;;;;;4983000;28;20206;-86
2022/08/14 02:45:21;;;;;;;5.67;3.00;;;;;;;;;;4983116;28;20218;-86
2022/08/14 02:48:34;;;;;;;3.67;2.90;;;;;;;;;;4982740;28;20641;-87
2022/08/14 02:51:40;;;;;;;3.37;3.07;;;;;;;;;;4994048;28;20194;-87
2022/08/14 02:54:44;;;;;;;5.47;2.80;;;;;;;;;;4978718;28;20198;-86
2022/08/14 02:57:53;;;;;;;5.67;3.37;;;;;;;;;;4982358;28;20696;-86
2022/08/14 03:00:58;;;;;;;5.17;3.13;;;;;;;;;;4974984;28;20182;-87
2022/08/14 03:04:04;;;;;;;3.23;2.90;;;;;;;;;;4980642;28;20185;-86
2022/08/14 03:07:09;;;;;;;3.97;3.10;;;;;;;;;;5002366;28;20181;-86
2022/08/14 03:10:13;;;;;;;3.87;3.10;;;;;;;;;;5002868;28;20177;-86
2022/08/14 03:13:18;;;;;;;6.13;3.40;;;;;;;;;;5002475;28;20222;-87
2022/08/14 03:16:25;;;;;;;3.70;3.37;;;;;;;;;;4963207;28;20226;-87
2022/08/14 03:19:29;;;;;;;3.37;3.10;;;;;;;;;;4974586;28;20215;-87
2022/08/14 03:22:33;;;;;;;3.67;3.37;;;;;;;;;;4963474;28;20182;-86
2022/08/14 03:25:38;;;;;;;5.10;4.00;;;;;;;;;;4987826;28;20226;-86
2022/08/14 03:28:43;;;;;;;4.07;3.67;;;;;;;;;;4982355;28;20205;-86
2022/08/14 03:31:50;;;;;;;3.70;3.40;;;;;;;;;;4993405;28;20198;-87
2022/08/14 03:34:54;;;;;;;4.20;3.80;;;;;;;;;;4982190;28;20633;-86
2022/08/14 03:38:08;;;;;;;4.30;3.90;;;;;;;;;;4982627;28;20183;-87
2022/08/14 03:41:15;;;;;;;4.13;3.77;;;;;;;;;;4991965;28;20194;-86
2022/08/14 03:44:19;;;;;;;4.47;4.07;;;;;;;;;;5013069;28;20181;-87
2022/08/14 03:47:24;;;;;;;4.47;4.10;;;;;;;;;;5002244;28;20189;-87
2022/08/14 03:50:28;;;;;;;3.80;3.40;;;;;;;;;;5002106;28;20514;-87
2022/08/14 03:53:36;;;;;;;5.00;4.60;;;;;;;;;;4991645;28;20173;-86
2022/08/14 03:56:43;;;;;;;4.30;3.90;;;;;;;;;;5005658;28;20213;-87
2022/08/14 03:59:48;;;;;;;5.13;4.63;;;;;;;;;;4992993;28;20226;-86
2022/08/14 04:02:52;;;;;;;4.57;4.03;;;;;;;;;;4986040;28;20511;-86
2022/08/14 04:05:56;;;;;;;5.07;4.40;;;;;;;;;;4985946;28;20217;-87
2022/08/14 04:09:00;;;;;;;4.47;4.00;;;;;;;;;;4997601;28;20633;-87
2022/08/14 04:12:04;;;;;;;4.73;4.13;;;;;;;;;;5004503;28;20189;-87
2022/08/14 04:15:10;;;;;;;6.10;4.23;;;;;;;;;;5005062;28;20691;-87
2022/08/14 04:18:13;;;;;;;4.70;4.30;;;;;;;;;;5020894;23;20711;-86
2022/08/14 04:21:21;;;;;;;6.50;4.40;;;;;;;;;;4975437;28;20178;-86
2022/08/14 04:24:26;;;;;;;4.50;4.10;;;;;;;;;;4986461;28;20202;-86
2022/08/14 04:27:30;;;;;;;5.40;3.93;;;;;;;;;;4986205;28;20217;-86
2022/08/14 04:30:38;;;;;;;4.57;4.17;;;;;;;;;;4975216;28;20198;-87
2022/08/14 04:33:41;;;;;;;5.57;4.20;;;;;;;;;;4988997;28;20202;-86
2022/08/14 04:43:36;;;;;;;5.73;4.80;;;;;;;;;;5005908;28;20194;-86
2022/08/14 04:48:11;;;;;;;4.73;4.33;;;;;;;;;;4994503;28;20568;-86
2022/08/14 04:50:05;;;;;;;4.57;4.17;;;;;;;;;;5004953;28;20197;-86
2022/08/14 04:53:12;;;;;;;5.23;4.43;;;;;;;;;;4994522;28;20201;-87
2022/08/14 04:56:21;;;;;;;5.87;4.80;;;;;;;;;;4974687;28;20179;-87
2022/08/14 04:59:25;;;;;;;7.87;4.63;;;;;;;;;;4956218;28;20211;-87
2022/08/14 05:02:29;;;;;;;4.53;4.13;;;;;;;;;;4967020;28;20183;-87
2022/08/14 05:05:33;;;;;;;5.70;4.30;;;;;;;;;;4964957;28;20190;-86
2022/08/14 05:08:39;;;;;;;5.67;4.73;;;;;;;;;;4955812;28;20211;-86
2022/08/14 05:11:43;;;;;;;5.70;4.17;;;;;;;;;;4977898;28;20183;-87
2022/08/14 05:14:47;;;;;;;5.40;4.00;;;;;;;;;;4966379;28;20646;-87
2022/08/14 05:17:52;;;;;;;6.20;3.87;;;;;;;;;;4966367;28;20226;-87
2022/08/14 05:20:58;;;;;;;5.67;3.90;;;;;;;;;;4966485;28;20175;-86
2022/08/14 05:24:03;;;;;;;5.57;4.50;;;;;;;;;;4960188;28;20190;-87
2022/08/14 05:27:08;;;;;;;4.53;4.13;;;;;;;;;;4976161;28;20213;-87
2022/08/14 05:30:13;;;;;;;6.57;4.47;;;;;;;;;;4985761;28;20194;-87
2022/08/14 05:33:19;;;;;;;4.67;4.27;;;;;;;;;;4961818;28;20534;-86
2022/08/14 05:36:24;;;;;;;4.60;4.20;;;;;;;;;;4985703;28;20186;-86
2022/08/14 05:39:29;;;;;;;5.73;4.87;;;;;;;;;;4974042;28;20206;-87
2022/08/14 05:42:34;;;;;;;7.47;5.20;;;;;;;;;;4985453;28;20186;-87
2022/08/14 05:45:38;;;;;;;4.97;4.50;;;;;;;;;;4974291;28;20198;-88
2022/08/14 05:48:49;;;;;;;7.03;5.10;;;;;;;;;;4973709;28;20210;-88
2022/08/14 05:51:53;;;;;;;6.63;4.43;;;;;;;;;;4979865;28;20186;-87
2022/08/14 05:54:57;;;;;;;5.30;4.60;;;;;;;;;;4973486;28;20178;-88
2022/08/14 05:58:04;;;;;;;7.10;4.53;;;;;;;;;;4984403;28;20226;-89
2022/08/14 06:01:08;;;;;;;6.23;4.63;;;;;;;;;;4984433;28;20186;-88
2022/08/14 06:04:12;;;;;;;4.63;3.87;;;;;;;;;;4984191;28;20186;-89
2022/08/14 06:07:17;;;;;;;5.47;4.27;;;;;;;;;;4984408;28;20218;-88
2022/08/14 06:10:21;;;;;;;4.83;4.33;;;;;;;;;;4973748;28;20174;-88
2022/08/14 06:13:25;;;;;;;6.30;4.53;;;;;;;;;;4967807;28;20534;-88
2022/08/14 06:16:29;;;;;;;9.60;4.53;;;;;;;;;;4954152;28;20510;-88
2022/08/14 06:19:33;;;;;;;5.03;4.57;;;;;;;;;;4954158;28;20206;-88
2022/08/14 06:22:39;;;;;;;6.53;5.23;;;;;;;;;;4965288;28;20645;-89
2022/08/14 06:25:46;;;;;;;6.67;4.73;;;;;;;;;;4965828;28;20187;-88
2022/08/14 06:28:50;;;;;;;4.70;4.17;;;;;;;;;;4964839;28;20191;-88
2022/08/14 06:31:54;;;;;;;4.63;4.23;;;;;;;;;;4977171;28;20187;-88
2022/08/14 06:34:58;;;;;;;5.10;4.60;;;;;;;;;;4987339;28;20182;-88
2022/08/14 06:38:02;;;;;;;5.27;4.30;;;;;;;;;;4977595;28;20219;-88
2022/08/14 06:41:06;;;;;;;5.70;5.03;;;;;;;;;;4954486;28;20191;-88
2022/08/14 06:44:10;;;;;;;5.20;4.70;;;;;;;;;;4990540;28;20193;-88
2022/08/14 06:47:14;;;;;;;6.13;5.33;;;;;;;;;;4984221;28;20222;-88
2022/08/14 06:50:20;;;;;;;7.50;4.83;;;;;;;;;;4995684;28;20193;-88
2022/08/14 06:53:24;;;;;;;6.40;5.03;;;;;;;;;;4984775;28;20206;-89
2022/08/14 06:56:29;;;;;;;6.33;5.10;;;;;;;;;;4984004;28;20178;-88
2022/08/14 06:59:33;;;;;;;7.07;5.13;;;;;;;;;;4983770;28;20205;-88
2022/08/14 07:06:00;;;;;;;8.63;5.10;;;;;;;;;;4994145;28;20183;-88
2022/08/14 07:09:04;;;;;;;5.20;4.70;;;;;;;;;;4994809;28;20198;-88
2022/08/14 07:12:09;;;;;;;7.03;4.60;;;;;;;;;;4972175;28;20202;-89
2022/08/14 07:15:13;;;;;;;6.70;4.63;;;;;;;;;;4972135;28;20190;-88
2022/08/14 07:18:22;;;;;;;5.60;5.10;;;;;;;;;;4994157;28;20222;-88
2022/08/14 07:21:27;;;;;;;5.33;4.83;;;;;;;;;;4973201;28;20190;-88
2022/08/14 07:24:31;;;;;;;4.80;4.30;;;;;;;;;;4981892;28;20199;-87
2022/08/14 07:27:35;;;;;;;8.53;4.20;;;;;;;;;;4984352;28;20226;-89
2022/08/14 07:30:43;;;;;;;5.80;5.20;;;;;;;;;;4980283;28;21470;-88
2022/08/14 07:33:47;;;;;;;7.73;4.50;;;;;;;;;;4976200;28;20190;-88
2022/08/14 07:36:54;;;;;;;4.57;4.10;;;;;;;;;;4982532;28;20225;-88
2022/08/14 07:39:58;;;;;;;5.13;4.53;;;;;;;;;;4982686;28;20214;-88
2022/08/14 07:43:02;;;;;;;5.63;4.67;;;;;;;;;;4971868;28;20186;-89
2022/08/14 07:46:06;;;;;;;4.83;4.17;;;;;;;;;;4995857;28;20174;-89
2022/08/14 07:49:10;;;;;;;5.40;4.20;;;;;;;;;;4964346;28;20187;-89
2022/08/14 07:52:14;;;;;;;4.90;4.07;;;;;;;;;;4975539;28;20186;-89
2022/08/14 07:55:18;;;;;;;25.90;4.83;;;;;;;;;;4976200;28;20183;-89
2022/08/14 07:58:22;;;;;;;4.73;3.60;;;;;;;;;;4964017;28;20222;-88
2022/08/14 08:01:29;;;;;;;4.30;3.90;;;;;;;;;;4975156;28;20179;-88
2022/08/14 08:04:35;;;;;;;4.47;4.07;;;;;;;;;;4964022;28;20183;-88
2022/08/14 08:07:47;;;;;;;3.73;3.33;;;;;;;;;;4987253;28;20214;-89
2022/08/14 08:10:56;;;;;;;4.50;3.73;;;;;;;;;;4965217;28;20183;-88
2022/08/14 08:14:02;;;;;;;6.93;3.30;;;;;;;;;;4975651;28;20187;-88
2022/08/14 08:17:07;;;;;;;4.07;3.13;;;;;;;;;;4970137;28;20224;-88
2022/08/14 08:20:19;;;;;;;3.57;3.20;;;;;;;;;;4982434;28;20210;-89
2022/08/14 08:23:28;;;;;;;4.50;3.17;;;;;;;;;;4971881;28;20633;-90
2022/08/14 08:27:35;;;;;;;3.90;2.93;;;;;;;;;;4993369;28;20204;-90
2022/08/14 08:37:02;;;;;;;5.47;3.13;;;;;;;;;;4974464;28;20233;-90
2022/08/14 08:41:04;;;;;;;3.13;2.58;;;;;;;;;;4967021;28;20216;-90
2022/08/14 08:44:57;;;;;;;2.55;2.17;;;;;;;;;;4987545;28;20195;-90
2022/08/14 08:48:03;;;;;;;2.78;2.58;;;;;;;;;;4988802;28;20222;-90
2022/08/14 08:51:07;;;;;;;5.00;2.72;;;;;;;;;;4978914;28;20192;-90
2022/08/14 08:54:14;;;;;;;3.90;2.60;;;;;;;;;;4964155;28;20177;-90
2022/08/14 08:57:19;;;;;;;6.00;2.78;;;;;;;;;;5009143;28;20562;-90
2022/08/14 09:00:23;;;;;;;3.40;2.35;;;;;;;;;;4964058;28;20203;-90
2022/08/14 09:03:30;;;;;;;3.75;2.55;;;;;;;;;;4963573;28;20185;-90
2022/08/14 09:06:46;;;;;;;3.55;2.95;;;;;;;;;;4980912;28;20692;-90
2022/08/14 09:09:54;;;;;;;115.47;9.18;;;;;;;;;;4990145;28;20195;-90
2022/08/14 09:13:00;;;;;;;5.65;2.58;;;;;;;;;;4993005;28;20664;-90
2022/08/14 09:16:04;;;;;;;2.50;2.30;;;;;;;;;;4991922;28;20203;-90
2022/08/14 09:19:09;;;;;;;3.97;2.58;;;;;;;;;;4983494;28;20219;-91
2022/08/14 09:22:14;;;;;;;4.32;2.70;;;;;;;;;;4971317;28;20195;-90
2022/08/14 09:25:19;;;;;;;2.88;2.28;;;;;;;;;;4978154;28;20532;-91
2022/08/14 09:28:23;;;;;;;3.03;2.33;;;;;;;;;;4968578;28;20227;-91
2022/08/14 09:31:29;;;;;;;2.60;2.40;;;;;;;;;;4979459;28;20178;-91
2022/08/14 09:35:06;;;;;;;4.65;2.60;;;;;;;;;;4957691;28;20183;-91
2022/08/14 09:38:49;;;;;;;3.22;2.70;;;;;;;;;;4964789;28;20685;-88
2022/08/14 09:42:12;;;;;;;5.07;2.70;;;;;;;;;;4992045;28;20234;-89
2022/08/14 09:45:31;;;;;;;3.38;2.55;;;;;;;;;;4974635;28;20175;-89
2022/08/14 09:48:37;;;;;;;4.43;2.70;;;;;;;;;;4996130;28;20214;-89
2022/08/14 09:51:42;;;;;;;3.95;2.67;;;;;;;;;;4996508;28;20179;-88
2022/08/14 09:54:47;;;;;;;3.95;2.63;;;;;;;;;;4973324;28;20206;-89
2022/08/14 09:57:52;;;;;;;5.03;2.30;;;;;;;;;;4995898;28;20218;-89
2022/08/14 10:00:59;;;;;;;5.50;2.30;;;;;;;;;;4973509;28;20222;-89
2022/08/14 10:04:15;;;;;;;4.20;2.22;;;;;;;;;;4984877;28;20174;-89
2022/08/14 10:07:30;;;;;;;2.58;2.17;;;;;;;;;;4984344;28;20214;-89
2022/08/14 10:10:37;;;;;;;2.88;2.35;;;;;;;;;;5006808;28;20202;-89
2022/08/14 10:13:41;;;;;;;13.18;2.47;;;;;;;;;;4982369;28;20199;-89
2022/08/14 10:16:53;;;;;;;2.38;2.17;;;;;;;;;;4984300;28;20222;-89
2022/08/14 10:19:57;;;;;;;4.75;2.42;;;;;;;;;;4998291;23;20238;-85
2022/08/14 10:23:12;;;;;;;3.53;2.47;;;;;;;;;;4984271;28;20187;-86
2022/08/14 10:26:18;;;;;;;2.95;2.03;;;;;;;;;;4982858;28;20210;-85
2022/08/14 10:29:42;;;;;;;3.35;2.10;;;;;;;;;;4973584;28;20219;-84
2022/08/14 10:32:47;;;;;;;14.63;2.83;;;;;;;;;;4953132;28;20187;-85
2022/08/14 10:35:51;;;;;;;4.65;2.67;;;;;;;;;;4974975;28;20179;-85
2022/08/14 10:38:57;;;;;;;2.78;2.50;;;;;;;;;;4955920;28;20232;-85
2022/08/14 10:42:06;;;;;;;3.78;2.30;;;;;;;;;;4955915;29;20208;-84
2022/08/14 10:45:28;;;;;;;2.05;1.85;;;;;;;;;;4967216;28;20192;-85
2022/08/14 10:48:33;;;;;;;2.53;2.20;;;;;;;;;;4944696;28;20219;-85
2022/08/14 10:51:36;;;;;;;4.75;2.22;;;;;;;;;;4967484;28;20183;-86
2022/08/14 10:54:43;;;;;;;4.63;2.00;;;;;;;;;;4955692;28;20179;-85
2022/08/14 10:57:52;;;;;;;4.80;1.98;;;;;;;;;;4955532;29;20195;-85
2022/08/14 11:00:59;;;;;;;2.85;2.20;;;;;;;;;;4966902;28;20675;-84
2022/08/14 11:04:03;;;;;;;15.73;2.80;;;;;;;;;;4943556;29;20192;-85
2022/08/14 11:07:13;;;;;;;2.38;2.00;;;;;;;;;;4966457;28;20184;-84
2022/08/14 11:10:17;;;;;;;16.70;2.63;;;;;;;;;;4980918;28;20227;-85
2022/08/14 11:13:24;;;;;;;6.20;2.30;;;;;;;;;;4963440;28;20179;-83
2022/08/14 11:16:29;;;;;;;3.13;2.15;;;;;;;;;;4974798;28;20631;-85
2022/08/14 11:19:35;;;;;;;3.63;2.28;;;;;;;;;;4963164;28;20223;-86
2022/08/14 11:22:41;;;;;;;2.60;2.20;;;;;;;;;;4953046;28;20630;-85
2022/08/14 11:25:46;;;;;;;2.10;1.90;;;;;;;;;;4963877;28;20183;-85
2022/08/14 11:28:52;;;;;;;4.63;2.13;;;;;;;;;;4963584;28;20222;-85
2022/08/14 11:31:58;;;;;;;2.58;2.10;;;;;;;;;;4952338;28;20179;-86
2022/08/14 11:35:02;;;;;;;3.90;1.77;;;;;;;;;;4963634;28;20179;-85
2022/08/14 11:38:07;;;;;;;2.15;2.00;;;;;;;;;;4952354;28;20639;-86
2022/08/14 11:41:14;;;;;;;3.75;2.10;;;;;;;;;;4952304;28;20223;-85
2022/08/14 11:44:18;;;;;;;3.53;2.10;;;;;;;;;;4963650;28;20179;-85
2022/08/14 11:47:23;;;;;;;2.22;1.85;;;;;;;;;;4963747;28;20638;-85
2022/08/14 11:50:30;;;;;;;4.15;2.00;;;;;;;;;;4963427;28;20219;-85
2022/08/14 11:53:35;;;;;;;1.90;1.80;;;;;;;;;;4964018;28;20183;-85
2022/08/14 11:56:40;;;;;;;3.67;2.00;;;;;;;;;;4963881;28;20179;-85
2022/08/14 11:59:44;;;;;;;2.95;2.20;;;;;;;;;;4963077;28;20215;-85
2022/08/14 12:02:56;;;;;;;4.55;2.08;;;;;;;;;;4963147;28;20191;-84
2022/08/14 12:06:12;;;;;;;5.07;2.28;;;;;;;;;;4952726;28;20191;-85
2022/08/14 12:09:34;;;;;;;2.28;2.10;;;;;;;;;;4963473;28;20207;-85
2022/08/14 12:12:39;;;;;;;2.22;2.00;;;;;;;;;;4952414;28;20180;-85
2022/08/14 12:15:48;;;;;;;3.25;2.00;;;;;;;;;;4965859;28;20519;-85
2022/08/14 12:18:57;;;;;;;2.50;2.30;;;;;;;;;;4966623;28;20222;-85
2022/08/14 12:22:01;;;;;;;2.30;1.88;;;;;;;;;;4956206;28;20211;-85
2022/08/14 12:25:11;;;;;;;2.50;2.30;;;;;;;;;;4967068;28;20207;-85
2022/08/14 12:28:15;;;;;;;3.75;2.22;;;;;;;;;;4966518;28;20199;-85
2022/08/14 12:31:19;;;;;;;7.95;2.72;;;;;;;;;;4978520;28;20618;-85
2022/08/14 12:34:30;;;;;;;3.10;2.00;;;;;;;;;;4977955;28;20183;-85
2022/08/14 12:37:35;;;;;;;2.30;2.10;;;;;;;;;;4955553;28;20184;-85
2022/08/14 12:40:51;;;;;;;3.47;2.05;;;;;;;;;;4966478;28;20186;-85
2022/08/14 12:44:03;;;;;;;2.17;2.00;;;;;;;;;;4955280;28;20199;-85
2022/08/14 12:47:16;;;;;;;3.38;2.38;;;;;;;;;;4977422;28;20523;-85
2022/08/14 12:50:21;;;;;;;2.35;2.10;;;;;;;;;;4965852;28;20215;-85
2022/08/14 12:53:35;;;;;;;2.30;2.10;;;;;;;;;;4966129;28;20187;-85
2022/08/14 12:56:40;;;;;;;7.85;2.17;;;;;;;;;;4965997;28;20187;-85
2022/08/14 12:59:44;;;;;;;3.10;1.95;;;;;;;;;;4954969;28;20214;-84
2022/08/14 13:02:53;;;;;;;3.28;2.30;;;;;;;;;;4966079;28;20215;-85
2022/08/14 13:05:57;;;;;;;8.30;2.42;;;;;;;;;;4955261;28;20187;-85
2022/08/14 13:09:03;;;;;;;3.50;2.22;;;;;;;;;;4965912;28;20223;-85
2022/08/14 13:12:08;;;;;;;2.40;2.20;;;;;;;;;;4954882;28;20511;-85
2022/08/14 13:15:14;;;;;;;13.90;3.05;;;;;;;;;;4954484;28;20199;-85
2022/08/14 13:18:21;;;;;;;2.90;2.20;;;;;;;;;;4965759;28;20199;-85
2022/08/14 13:21:26;;;;;;;5.28;2.25;;;;;;;;;;4954669;28;20203;-85
2022/08/14 13:24:30;;;;;;;2.28;2.03;;;;;;;;;;4976867;28;20532;-85
2022/08/14 13:27:35;;;;;;;2.15;1.95;;;;;;;;;;4964786;28;20179;-85
2022/08/14 13:30:43;;;;;;;3.40;2.10;;;;;;;;;;4954632;28;20184;-85
2022/08/14 13:33:48;;;;;;;4.22;2.58;;;;;;;;;;4954535;28;20175;-85
2022/08/14 13:36:56;;;;;;;2.47;2.28;;;;;;;;;;4976452;28;20199;-85
2022/08/14 13:40:00;;;;;;;5.47;2.20;;;;;;;;;;4965333;28;20215;-85
2022/08/14 13:43:07;;;;;;;2.13;1.83;;;;;;;;;;4977668;28;20203;-85
2022/08/14 13:46:11;;;;;;;3.55;2.15;;;;;;;;;;4977439;28;20544;-85
2022/08/14 13:49:16;;;;;;;2.83;2.63;;;;;;;;;;4975921;28;20219;-85
2022/08/14 13:52:21;;;;;;;4.53;2.58;;;;;;;;;;4954687;28;20513;-85
2022/08/14 13:55:28;;;;;;;2.38;2.17;;;;;;;;;;4965163;28;20180;-85
2022/08/14 13:58:33;;;;;;;2.45;2.25;;;;;;;;;;4964577;28;20227;-85
2022/08/14 14:01:45;;;;;;;2.38;2.17;;;;;;;;;;4934683;29;20670;-85
2022/08/14 14:04:49;;;;;;;2.30;2.08;;;;;;;;;;4967764;28;20180;-85
2022/08/14 14:07:54;;;;;;;5.78;2.20;;;;;;;;;;4945656;29;20195;-85
2022/08/14 14:10:58;;;;;;;2.72;2.25;;;;;;;;;;4945441;29;20184;-85
2022/08/14 14:14:03;;;;;;;2.42;2.13;;;;;;;;;;4949374;28;20555;-85
2022/08/14 14:17:11;;;;;;;7.40;2.45;;;;;;;;;;4953749;28;20524;-85
2022/08/14 14:20:18;;;;;;;10.40;2.60;;;;;;;;;;4953820;28;20223;-85
2022/08/14 14:23:24;;;;;;;2.80;2.60;;;;;;;;;;4964761;28;20184;-85
2022/08/14 14:26:29;;;;;;;2.50;2.30;;;;;;;;;;4964971;28;20199;-85
2022/08/14 14:29:35;;;;;;;2.58;2.30;;;;;;;;;;4964407;28;20218;-85
2022/08/14 14:32:43;;;;;;;3.92;2.72;;;;;;;;;;4964550;28;20199;-85
2022/08/14 14:35:48;;;;;;;2.70;2.50;;;;;;;;;;4975384;28;20184;-85
2022/08/14 14:38:58;;;;;;;2.80;2.53;;;;;;;;;;4963689;28;20223;-85
2022/08/14 14:42:03;;;;;;;3.50;2.38;;;;;;;;;;4975404;28;20211;-85
2022/08/14 14:45:13;;;;;;;3.35;2.38;;;;;;;;;;4953110;28;20183;-85
2022/08/14 14:48:18;;;;;;;3.67;2.67;;;;;;;;;;4986645;28;20522;-85
2022/08/14 14:51:22;;;;;;;2.78;2.58;;;;;;;;;;4964979;28;20346;-85
2022/08/14 14:54:27;;;;;;;3.00;2.70;;;;;;;;;;4964875;28;20183;-85
2022/08/14 14:57:32;;;;;;;2.50;2.30;;;;;;;;;;4965096;28;20623;-85
2022/08/14 15:00:36;;;;;;;4.05;2.60;;;;;;;;;;4976521;28;20203;-85
2022/08/14 15:03:42;;;;;;;2.75;2.55;;;;;;;;;;4974861;28;20183;-85
2022/08/14 15:06:47;;;;;;;2.60;2.40;;;;;;;;;;4986567;28;20207;-85
2022/08/14 15:09:51;;;;;;;2.83;2.63;;;;;;;;;;4953067;28;20215;-85
2022/08/14 15:12:55;;;;;;;2.60;2.40;;;;;;;;;;4964734;28;20175;-85
2022/08/14 15:15:59;;;;;;;2.72;2.53;;;;;;;;;;4987443;28;20175;-85
2022/08/14 15:19:03;;;;;;;3.33;2.70;;;;;;;;;;4964514;28;20222;-85
2022/08/14 15:22:08;;;;;;;9.15;3.10;;;;;;;;;;4986369;28;20203;-85
2022/08/14 15:25:13;;;;;;;2.58;2.38;;;;;;;;;;4986200;28;20643;-85
2022/08/14 15:28:17;;;;;;;2.90;2.70;;;;;;;;;;4986232;28;20199;-85
2022/08/14 15:31:21;;;;;;;3.70;2.42;;;;;;;;;;4964072;28;20199;-85
2022/08/14 15:34:27;;;;;;;2.80;2.58;;;;;;;;;;4976399;28;20524;-85
2022/08/14 15:37:33;;;;;;;3.45;2.67;;;;;;;;;;4966193;28;20183;-85
2022/08/14 15:40:40;;;;;;;2.83;2.60;;;;;;;;;;4965480;28;20179;-85
2022/08/14 15:43:44;;;;;;;2.63;2.42;;;;;;;;;;4964507;28;20520;-85
2022/08/14 15:46:48;;;;;;;4.22;3.13;;;;;;;;;;4977572;28;20187;-85
2022/08/14 15:49:52;;;;;;;3.63;2.83;;;;;;;;;;4978034;28;20685;-85
2022/08/14 15:52:57;;;;;;;5.22;2.90;;;;;;;;;;4968936;28;20195;-85
2022/08/14 15:56:01;;;;;;;3.75;3.17;;;;;;;;;;4969345;28;20180;-85
2022/08/14 15:59:08;;;;;;;3.40;3.10;;;;;;;;;;4958960;28;20215;-85
2022/08/14 16:02:12;;;;;;;3.25;2.92;;;;;;;;;;4970500;28;20210;-85
2022/08/14 16:05:21;;;;;;;4.25;2.90;;;;;;;;;;4980319;28;20203;-85
2022/08/14 16:08:25;;;;;;;3.83;2.60;;;;;;;;;;4969963;28;20187;-85
2022/08/14 16:11:30;;;;;;;3.83;2.30;;;;;;;;;;4968882;28;20189;-84
2022/08/14 16:14:36;;;;;;;2.83;2.60;;;;;;;;;;4991588;28;20519;-85
2022/08/14 16:17:41;;;;;;;2.80;2.60;;;;;;;;;;4969309;28;20185;-85
2022/08/14 16:20:46;;;;;;;5.63;2.50;;;;;;;;;;5018982;23;20240;-87
2022/08/14 16:23:51;;;;;;;5.80;2.63;;;;;;;;;;5009278;28;20572;-87
2022/08/14 16:26:56;;;;;;;5.28;3.00;;;;;;;;;;5009053;28;20176;-88
2022/08/14 16:30:00;;;;;;;3.92;3.10;;;;;;;;;;5007425;28;20222;-88
2022/08/14 16:33:05;;;;;;;9.13;3.38;;;;;;;;;;5018788;28;20180;-87
2022/08/14 16:36:17;;;;;;;6.40;3.40;;;;;;;;;;5015224;28;20195;-87
2022/08/14 16:39:22;;;;;;;3.30;3.00;;;;;;;;;;4976339;28;20225;-84
2022/08/14 16:42:31;;;;;;;4.32;3.17;;;;;;;;;;4993453;28;20215;-87
2022/08/14 16:45:38;;;;;;;3.70;2.90;;;;;;;;;;4996380;28;20667;-87
2022/08/14 16:48:43;;;;;;;3.90;3.60;;;;;;;;;;5006197;28;20173;-87
2022/08/14 16:51:48;;;;;;;6.63;3.42;;;;;;;;;;5017815;28;20173;-86
2022/08/14 16:54:52;;;;;;;4.18;3.45;;;;;;;;;;5009924;28;20192;-86
2022/08/14 16:57:56;;;;;;;3.83;3.53;;;;;;;;;;4995215;28;20867;-86
2022/08/14 17:01:22;;;;;;;4.03;3.63;;;;;;;;;;4994617;28;20175;-86
2022/08/14 17:04:28;;;;;;;3.70;3.30;;;;;;;;;;5005635;28;20185;-86
2022/08/14 17:07:32;;;;;;;4.32;3.53;;;;;;;;;;4974982;28;20649;-86
2022/08/14 17:10:42;;;;;;;4.75;3.00;;;;;;;;;;4974882;28;20216;-86
2022/08/14 17:13:46;;;;;;;3.20;3.00;;;;;;;;;;4994121;28;20197;-86
2022/08/14 17:16:56;;;;;;;5.25;3.28;;;;;;;;;;5016254;28;20639;-86
2022/08/14 17:20:07;;;;;;;4.38;3.42;;;;;;;;;;4985587;28;20239;-86
2022/08/14 17:23:12;;;;;;;5.47;3.60;;;;;;;;;;4974843;28;20214;-86
2022/08/14 17:26:48;;;;;;;4.60;3.30;;;;;;;;;;4978380;28;20208;-86
2022/08/14 17:29:52;;;;;;;3.53;3.20;;;;;;;;;;4986426;28;20224;-86
2022/08/14 17:32:57;;;;;;;4.97;3.42;;;;;;;;;;4974678;28;20185;-87
2022/08/14 17:36:13;;;;;;;5.15;3.33;;;;;;;;;;4974760;28;20184;-86
2022/08/14 17:39:19;;;;;;;8.70;3.00;;;;;;;;;;4994296;28;20228;-86
2022/08/14 17:42:49;;;;;;;27.25;4.93;;;;;;;;;;4996752;28;20207;-86
2022/08/14 17:45:53;;;;;;;10.50;3.55;;;;;;;;;;4998961;28;20204;-86
2022/08/14 17:49:09;;;;;;;4.15;2.85;;;;;;;;;;4995943;28;20227;-86
2022/08/14 17:52:17;;;;;;;5.97;3.25;;;;;;;;;;4984618;28;20185;-86
2022/08/14 17:55:22;;;;;;;10.68;3.88;;;;;;;;;;5008622;28;20204;-87
2022/08/14 17:58:26;;;;;;;5.68;3.15;;;;;;;;;;4992711;28;20547;-86
2022/08/14 18:01:35;;;;;;;8.63;3.50;;;;;;;;;;4991704;28;20182;-86
2022/08/14 18:04:41;;;;;;;9.02;3.28;;;;;;;;;;4991436;28;20186;-87
2022/08/14 18:07:46;;;;;;;5.65;3.17;;;;;;;;;;4984558;28;20189;-88
2022/08/14 18:10:50;;;;;;;4.88;3.50;;;;;;;;;;4995580;28;20215;-86
2022/08/14 18:13:58;;;;;;;5.57;3.20;;;;;;;;;;4995251;28;20179;-87
2022/08/14 18:17:04;;;;;;;4.93;3.00;;;;;;;;;;4973219;28;20633;-87
2022/08/14 18:20:09;;;;;;;4.40;3.50;;;;;;;;;;4973371;28;20575;-86
2022/08/14 18:23:13;;;;;;;4.03;3.10;;;;;;;;;;4985121;28;20656;-86
2022/08/14 18:26:23;;;;;;;3.50;3.20;;;;;;;;;;4984780;28;20523;-87
2022/08/14 18:29:29;;;;;;;4.73;3.80;;;;;;;;;;4983963;28;20223;-87
2022/08/14 18:32:37;;;;;;;5.20;3.80;;;;;;;;;;4984070;28;20178;-87
2022/08/14 18:35:50;;;;;;;19.63;4.53;;;;;;;;;;4972735;28;20175;-87
2022/08/14 18:39:19;;;;;;;4.30;3.30;;;;;;;;;;4983631;28;20183;-87
2022/08/14 18:42:26;;;;;;;3.63;3.30;;;;;;;;;;4972963;28;20181;-87
2022/08/14 18:45:33;;;;;;;6.10;3.70;;;;;;;;;;4983529;28;20181;-87
2022/08/14 18:48:39;;;;;;;5.30;3.70;;;;;;;;;;4995046;28;20184;-87
2022/08/14 18:51:43;;;;;;;4.17;3.77;;;;;;;;;;4983447;28;20176;-87
2022/08/14 18:54:48;;;;;;;7.47;4.10;;;;;;;;;;4974543;28;20184;-87
2022/08/14 18:57:58;;;;;;;3.97;3.57;;;;;;;;;;4983847;28;20186;-87
2022/08/14 19:01:03;;;;;;;7.93;3.63;;;;;;;;;;4972302;28;20195;-87